< Typhoon 201220 2012 Season Typhoon 201222 >
Typhoon 201221 (PRAPIROON)
General InformationTrack Information on Google MapsDetailed Wind InformationAccess Analytics MapList of All Images || NewsDisaster Info.WeblogTrackbackTyphoon FrontTwiphoonTyphoon Now!Typhoon ImaginationResourceGoogle EarthGE AnimationAtom FeedGeoJSON
Detalied Best Track (Time Zone = UTC)
Year Month Day Hour Lat. Long. Pressure (hPa) Wind (kt) Class Image Chart
2012 10 5 00 14.5 144.5 1006 0 2 Image Chart
2012 10 5 06 14.8 143.4 1006 0 2 Image Chart
2012 10 5 12 15.1 142.3 1006 0 2 Image Chart
2012 10 5 18 15.6 141.6 1006 0 2 Image Chart
2012 10 6 00 16.3 140.8 1006 0 2 Image Chart
2012 10 6 06 16.9 140.4 1004 0 2 Image Chart
2012 10 6 12 17.3 139.9 1004 0 2 Image Chart
2012 10 6 18 17.7 139.1 1002 0 2 Image Chart
2012 10 7 00 17.7 138.3 1002 0 2 Image Chart
2012 10 7 06 17.8 137.3 1002 0 2 Image Chart
2012 10 7 12 17.8 136.6 1000 35 3 Image Chart
2012 10 7 18 17.8 136.0 994 40 3 Image Chart
2012 10 8 00 17.9 135.5 985 50 4 Image Chart
2012 10 8 06 18.0 135.0 980 55 4 Image Chart
2012 10 8 12 18.4 133.9 980 55 4 Image Chart
2012 10 8 18 18.1 133.3 970 65 5 Image Chart
2012 10 9 00 17.7 132.5 970 65 5 Image Chart
2012 10 9 06 17.6 132.1 970 65 5 Image Chart
2012 10 9 12 18.0 132.0 965 65 5 Image Chart
2012 10 9 18 18.2 131.7 960 70 5 Image Chart
2012 10 10 00 18.3 130.9 960 70 5 Image Chart
2012 10 10 06 18.6 130.4 950 80 5 Image Chart
2012 10 10 12 18.6 130.1 950 80 5 Image Chart
2012 10 10 18 18.9 129.5 950 80 5 Image Chart
2012 10 11 00 19.1 129.0 950 80 5 Image Chart
2012 10 11 06 19.5 128.6 950 80 5 Image Chart
2012 10 11 12 19.5 128.4 940 90 5 Image Chart
2012 10 11 18 19.5 128.4 940 90 5 Image Chart
2012 10 12 00 19.6 128.5 940 90 5 Image Chart
2012 10 12 06 19.9 128.9 940 90 5 Image Chart
2012 10 12 12 20.1 129.3 940 90 5 Image Chart
2012 10 12 18 20.4 129.6 950 80 5 Image Chart
2012 10 13 00 20.7 129.8 950 80 5 Image Chart
2012 10 13 06 21.1 129.9 955 75 5 Image Chart
2012 10 13 12 21.4 129.8 955 75 5 Image Chart
2012 10 13 18 21.5 130.4 955 75 5 Image Chart
2012 10 14 00 22.0 130.8 955 75 5 Image Chart
2012 10 14 06 22.4 130.9 955 75 5 Image Chart
2012 10 14 12 22.6 131.4 955 75 5 Image Chart
2012 10 14 18 22.8 131.4 960 70 5 Image Chart
2012 10 15 00 22.8 131.2 960 70 5 Image Chart
2012 10 15 06 22.6 131.2 960 70 5 Image Chart
2012 10 15 12 22.4 131.1 960 70 5 Image Chart
2012 10 15 18 22.3 130.5 965 65 5 Image Chart
2012 10 16 00 21.8 130.1 970 60 4 Image Chart
2012 10 16 06 21.4 129.5 970 60 4 Image Chart
2012 10 16 12 21.7 128.9 970 60 4 Image Chart
2012 10 16 18 22.5 128.6 975 55 4 Image Chart
2012 10 17 00 23.2 128.3 975 55 4 Image Chart
2012 10 17 06 24.2 128.7 980 55 4 Image Chart
2012 10 17 12 24.9 129.5 980 55 4 Image Chart
2012 10 17 15 25.5 130.0 980 55 4 Image Chart
2012 10 17 18 25.9 130.5 980 55 4 Image Chart
2012 10 17 21 26.6 131.1 980 55 4 Image Chart
2012 10 18 00 27.3 131.8 985 50 4 Image Chart
2012 10 18 03 27.7 132.8 985 50 4 Image Chart
2012 10 18 06 28.5 134.0 990 50 4 Image Chart
2012 10 18 12 30.2 136.4 990 50 4 Image Chart
2012 10 18 18 31.3 139.3 990 50 4 Image Chart
2012 10 19 00 32.5 142.5 994 50 4 Image Chart
2012 10 19 06 32.7 145.9 994 50 4 Image Chart
2012 10 19 12 34.0 149.0 998 0 6 Image Chart
2012 10 19 18 33.1 151.9 1000 0 6 Image Chart
2012 10 20 00 33.3 155.4 1004 0 6 Image Chart
2012 10 20 06 33.4 157.9 1004 0 6 Image Chart
2012 10 20 12 33.6 160.0 1004 0 6 Image Chart
2012 10 20 18 33.6 162.0 1004 0 6 Image Chart
2012 10 21 00 33.3 163.4 1004 0 6 Image Chart
2012 10 21 06 33.3 164.6 1006 0 6 Image Chart
2012 10 21 12 33.5 165.4 1004 0 6 Image Chart
2012 10 21 18 35.2 167.4 1004 0 6 Image Chart
2012 10 22 00 37.6 169.5 1004 0 6 Image Chart
2012 10 22 06 41.3 172.6 1004 0 6 Image Chart
2012 10 22 12 45.7 173.8 996 0 6 Image Chart
2012 10 22 18 47.8 175.7 988 0 6 Image Chart
2012 10 23 00 49.4 176.9 984 0 6 Image Chart
2012 10 23 06 50.4 177.6 982 0 6 Image Chart
2012 10 23 12 51.0 178.8 982 0 6 Image Chart
2012 10 23 18 50.5 180.1 986 0 6 Image Chart
Japan Meteorological Agency Best Track Data | Correction Date : 2012-11-21
< Typhoon 201220 2012 Season Typhoon 201222 >

Help